createdAt,value
2018-08-19T00:00:21.498Z,99.90
2018-08-19T00:02:50.236Z,99.90
2018-08-19T00:22:40.718Z,99.90
2018-08-19T00:25:10.735Z,99.90
2018-08-19T00:27:39.361Z,99.90
2018-08-19T00:30:09.263Z,99.90
2018-08-19T00:50:02.631Z,99.90
2018-08-19T00:52:32.260Z,99.90
2018-08-19T00:55:00.769Z,99.90
2018-08-19T00:57:29.411Z,99.90
2018-08-19T00:59:57.933Z,99.90
2018-08-19T01:02:26.463Z,99.90
2018-08-19T01:04:55.179Z,99.90
2018-08-19T01:07:23.681Z,99.90
2018-08-19T01:09:53.394Z,99.90
2018-08-19T01:12:22.835Z,99.90
2018-08-19T01:14:51.363Z,99.90
2018-08-19T01:17:26.665Z,99.90
2018-08-19T01:19:59.411Z,99.90
2018-08-19T01:22:28.667Z,99.90
2018-08-19T01:24:57.715Z,99.90
2018-08-19T01:27:26.376Z,99.90
2018-08-19T01:29:55.099Z,99.90
2018-08-19T01:32:23.677Z,99.90
2018-08-19T01:34:52.204Z,99.90
2018-08-19T01:37:22.366Z,99.90
2018-08-19T01:39:50.899Z,99.90
2018-08-19T01:42:19.718Z,99.90
2018-08-19T01:44:49.818Z,99.90
2018-08-19T01:47:18.285Z,99.90
2018-08-19T01:49:47.320Z,99.90
2018-08-19T01:52:16.137Z,99.90
2018-08-19T01:54:44.770Z,99.90
2018-08-19T01:57:14.489Z,99.90
2018-08-19T01:59:43.799Z,99.90
2018-08-19T02:02:13.100Z,99.90
2018-08-19T02:04:56.526Z,99.90
2018-08-19T02:07:26.433Z,99.90
2018-08-19T02:10:02.001Z,99.90
2018-08-19T02:12:36.178Z,99.90
2018-08-19T02:15:05.388Z,99.90
2018-08-19T02:17:37.564Z,99.90
2018-08-19T02:20:06.217Z,99.90
2018-08-19T02:22:34.709Z,99.90
2018-08-19T02:25:03.185Z,99.90
2018-08-19T02:27:31.680Z,99.90
2018-08-19T02:30:00.193Z,99.90
2018-08-19T02:32:28.771Z,99.90
2018-08-19T02:34:57.298Z,99.90
2018-08-19T02:54:46.780Z,99.90
2018-08-19T02:57:15.303Z,99.90
2018-08-19T02:59:43.816Z,99.90
2018-08-19T03:02:24.629Z,99.90
2018-08-19T03:04:53.942Z,99.90
2018-08-19T03:07:25.181Z,99.90
2018-08-19T03:10:10.598Z,99.90
2018-08-19T03:12:39.873Z,99.90
2018-08-19T03:15:09.824Z,99.90
2018-08-19T03:17:38.601Z,99.90
2018-08-19T03:20:08.970Z,99.90
2018-08-19T03:22:38.243Z,99.90
2018-08-19T03:25:07.295Z,99.90
2018-08-19T03:27:35.866Z,99.90
2018-08-19T03:30:08.522Z,99.90
2018-08-19T03:32:38.146Z,99.90
2018-08-19T03:35:12.481Z,99.90
2018-08-19T03:37:41.187Z,99.90
2018-08-19T03:40:10.237Z,99.90
2018-08-19T03:42:38.767Z,99.90
2018-08-19T03:45:20.733Z,99.90
2018-08-19T03:47:50.480Z,99.90
2018-08-19T03:50:23.021Z,99.90
2018-08-19T03:52:52.478Z,99.90
2018-08-19T04:12:43.361Z,99.90
2018-08-19T04:15:12.573Z,99.90
2018-08-19T04:17:41.223Z,99.90
2018-08-19T04:20:10.368Z,99.90
2018-08-19T04:22:38.998Z,99.90
2018-08-19T04:25:07.574Z,99.90
2018-08-19T04:27:37.445Z,99.90
2018-08-19T04:30:05.998Z,99.90
2018-08-19T04:32:35.274Z,99.90
2018-08-19T04:35:04.314Z,99.90
2018-08-19T04:54:55.794Z,99.90
2018-08-19T04:57:25.741Z,99.90
2018-08-19T04:59:54.390Z,99.90
2018-08-19T05:02:23.632Z,99.90
2018-08-19T05:04:52.067Z,99.90
2018-08-19T05:07:20.618Z,99.90
2018-08-19T05:09:49.194Z,99.90
2018-08-19T05:29:39.471Z,99.90
2018-08-19T05:32:12.878Z,99.90
2018-08-19T05:52:08.643Z,99.90
2018-08-19T05:54:42.726Z,99.90
2018-08-19T06:14:32.966Z,99.90
2018-08-19T06:17:03.595Z,99.90
2018-08-19T06:19:33.081Z,99.90
2018-08-19T06:22:02.630Z,99.90
2018-08-19T06:24:31.147Z,99.90
2018-08-19T06:26:59.667Z,99.90
2018-08-19T06:29:43.773Z,99.90
2018-08-19T06:32:20.647Z,99.90
2018-08-19T06:34:49.855Z,99.90
2018-08-19T06:37:19.199Z,99.90
2018-08-19T06:39:49.266Z,99.90
2018-08-19T06:42:18.604Z,99.90
2018-08-19T06:44:47.804Z,99.90
2018-08-19T06:47:16.445Z,99.90
2018-08-19T06:49:50.456Z,99.90
2018-08-19T06:52:19.836Z,99.90
2018-08-19T06:54:48.248Z,99.90
2018-08-19T06:57:16.978Z,99.90
2018-08-19T06:59:46.530Z,99.90
2018-08-19T07:02:16.861Z,99.90
2018-08-19T07:22:08.033Z,99.90
2018-08-19T07:41:58.268Z,99.90
2018-08-19T07:44:26.924Z,99.90
2018-08-19T08:04:16.913Z,99.90
2018-08-19T08:24:08.879Z,99.90
2018-08-19T08:26:41.846Z,99.90
2018-08-19T08:29:10.609Z,99.90
2018-08-19T08:31:44.241Z,99.90
2018-08-19T08:51:35.064Z,99.90
2018-08-19T08:54:03.808Z,99.90
2018-08-19T08:56:32.333Z,99.90
2018-08-19T08:59:01.672Z,99.90
2018-08-19T09:18:51.858Z,99.90
2018-08-19T09:21:20.386Z,99.90
2018-08-19T09:41:09.974Z,99.90
2018-08-19T09:43:38.534Z,99.90
2018-08-19T09:46:07.073Z,99.90
2018-08-19T09:48:35.553Z,99.90
2018-08-19T09:53:45.089Z,99.90
2018-08-19T09:56:13.492Z,99.90
2018-08-19T10:16:03.951Z,99.90
2018-08-19T10:35:57.376Z,99.90
2018-08-19T10:38:26.609Z,99.90
2018-08-19T10:41:04.023Z,99.90
2018-08-19T10:43:33.140Z,99.90
2018-08-19T10:46:01.668Z,99.50
2018-08-19T10:48:30.556Z,99.70
2018-08-19T11:08:20.888Z,99.90
2018-08-19T11:10:49.494Z,99.90
2018-08-19T11:13:20.741Z,99.90
2018-08-19T11:15:56.481Z,99.40
2018-08-19T11:18:30.238Z,98.80
2018-08-19T11:21:02.877Z,96.40
2018-08-19T11:23:32.280Z,97.00
2018-08-19T11:26:01.612Z,97.20
2018-08-19T11:45:50.876Z,99.30
2018-08-19T11:48:19.554Z,98.10
2018-08-19T11:50:48.370Z,99.40
2018-08-19T11:53:17.719Z,94.40
2018-08-19T11:55:46.226Z,95.20
2018-08-19T11:58:30.686Z,97.10
2018-08-19T12:01:02.202Z,97.80
2018-08-19T12:03:41.852Z,95.80
2018-08-19T12:06:10.525Z,94.60
2018-08-19T12:26:00.438Z,95.00
2018-08-19T12:28:29.069Z,96.00
2018-08-19T12:30:57.607Z,92.40
2018-08-19T12:33:28.109Z,91.50
2018-08-19T12:35:58.192Z,92.10
2018-08-19T12:38:27.250Z,92.60
2018-08-19T12:40:55.961Z,93.40
2018-08-19T12:43:25.265Z,93.00
2018-08-19T12:45:53.862Z,93.70
2018-08-19T12:48:22.690Z,93.30
2018-08-19T12:50:59.268Z,93.60
2018-08-19T12:53:27.848Z,91.60
2018-08-19T12:55:57.155Z,90.70
2018-08-19T12:58:25.631Z,89.10
2018-08-19T13:18:15.421Z,85.30
2018-08-19T13:20:43.895Z,86.90
2018-08-19T13:40:33.957Z,78.50
2018-08-19T13:43:03.899Z,78.40
2018-08-19T13:45:32.439Z,77.70
2018-08-19T14:05:23.263Z,73.40
2018-08-19T14:07:53.070Z,73.90
2018-08-19T14:10:22.356Z,71.10
2018-08-19T14:12:51.500Z,71.80
2018-08-19T14:15:20.373Z,71.50
2018-08-19T14:17:48.987Z,71.60
2018-08-19T14:20:18.351Z,69.60
2018-08-19T14:22:47.513Z,66.00
2018-08-19T14:25:17.050Z,66.40
2018-08-19T14:27:45.587Z,68.40
2018-08-19T14:30:14.289Z,72.10
2018-08-19T14:50:03.370Z,67.50
2018-08-19T14:52:32.035Z,66.90
2018-08-19T14:55:00.575Z,65.10
2018-08-19T14:57:29.719Z,65.10
2018-08-19T14:59:58.494Z,65.80
2018-08-19T15:19:50.985Z,61.30
2018-08-19T15:22:19.758Z,64.20
2018-08-19T15:42:10.692Z,66.50
2018-08-19T15:44:40.418Z,62.90
2018-08-19T15:47:08.972Z,64.80
2018-08-19T15:49:37.449Z,64.90
2018-08-19T15:52:05.952Z,64.80
2018-08-19T15:54:34.438Z,65.10
2018-08-19T15:57:04.452Z,63.00
2018-08-19T15:59:35.658Z,63.80
2018-08-19T16:02:04.514Z,64.20
2018-08-19T16:04:33.729Z,65.10
2018-08-19T16:07:02.465Z,64.80
2018-08-19T16:09:31.941Z,65.00
2018-08-19T16:12:00.451Z,64.60
2018-08-19T16:14:30.817Z,63.60
2018-08-19T16:34:21.046Z,65.60
2018-08-19T16:36:49.691Z,66.40
2018-08-19T16:39:19.315Z,64.90
2018-08-19T16:41:47.802Z,63.80
2018-08-19T16:44:16.329Z,63.70
2018-08-19T16:46:44.952Z,64.10
2018-08-19T17:06:34.852Z,63.60
2018-08-19T17:09:03.470Z,64.60
2018-08-19T17:11:31.979Z,64.10
2018-08-19T17:14:01.046Z,64.90
2018-08-19T17:16:29.842Z,65.90
2018-08-19T17:18:59.630Z,65.70
2018-08-19T17:21:28.181Z,66.60
2018-08-19T17:23:57.483Z,66.90
2018-08-19T17:26:26.028Z,67.20
2018-08-19T17:28:54.641Z,68.60
2018-08-19T17:48:45.171Z,77.50
2018-08-19T17:51:26.137Z,79.00
2018-08-19T17:53:54.670Z,79.10
2018-08-19T18:13:44.066Z,86.00
2018-08-19T18:16:13.929Z,87.00
2018-08-19T18:36:04.657Z,90.00
2018-08-19T18:55:54.555Z,88.10
2018-08-19T18:58:23.120Z,89.20
2018-08-19T19:00:59.653Z,90.00
2018-08-19T19:03:28.299Z,88.40
2018-08-19T19:05:56.745Z,89.50
2018-08-19T19:08:25.277Z,90.30
2018-08-19T19:10:59.103Z,90.90
2018-08-19T19:13:28.284Z,91.10
2018-08-19T19:15:56.802Z,91.30
2018-08-19T19:18:26.079Z,91.80
2018-08-19T19:21:00.392Z,92.40
2018-08-19T19:23:36.722Z,92.60
2018-08-19T19:26:06.470Z,92.80
2018-08-19T19:28:35.048Z,93.60
2018-08-19T19:31:08.957Z,93.70
2018-08-19T19:50:59.382Z,92.80
2018-08-19T19:53:27.900Z,92.50
2018-08-19T19:56:00.650Z,92.10
2018-08-19T19:58:29.219Z,92.20
2018-08-19T20:00:57.718Z,91.90
2018-08-19T20:03:26.758Z,91.40
2018-08-19T20:05:56.402Z,91.50
2018-08-19T20:25:47.162Z,94.90
2018-08-19T20:28:15.727Z,95.20
2018-08-19T20:48:05.602Z,94.80
2018-08-19T20:50:34.286Z,94.60
2018-08-19T20:53:02.759Z,93.90
2018-08-19T20:55:31.405Z,93.70
2018-08-19T20:58:01.977Z,92.80
2018-08-19T21:17:51.885Z,94.10
2018-08-19T21:20:20.882Z,93.80
2018-08-19T21:22:50.239Z,93.60
2018-08-19T21:25:19.448Z,94.10
2018-08-19T21:27:48.816Z,95.00
2018-08-19T21:30:17.396Z,94.70
2018-08-19T21:32:45.854Z,94.90
2018-08-19T21:52:40.246Z,95.00
2018-08-19T21:55:09.258Z,94.80
2018-08-19T22:14:59.065Z,96.80
2018-08-19T22:34:48.973Z,95.80
2018-08-19T22:37:18.211Z,96.10
2018-08-19T22:39:47.388Z,96.10
2018-08-19T22:42:16.557Z,96.40
2018-08-19T22:44:45.848Z,96.00
2018-08-19T22:47:14.352Z,95.20
2018-08-19T22:49:43.522Z,95.70
2018-08-19T23:09:33.184Z,95.00
2018-08-19T23:12:01.698Z,95.10
2018-08-19T23:14:41.658Z,95.40
2018-08-19T23:17:10.064Z,95.80
2018-08-19T23:19:38.501Z,97.00
2018-08-19T23:39:30.458Z,98.10
2018-08-19T23:41:58.920Z,98.50
2018-08-19T23:44:28.549Z,98.50
2018-08-19T23:46:57.013Z,98.60
2018-08-19T23:49:26.202Z,98.90
2018-08-19T23:51:55.218Z,99.60
2018-08-19T23:54:23.632Z,99.90
2018-08-19T23:56:52.229Z,99.90
2018-08-19T23:59:26.085Z,99.90
